createdAt,value
2023-05-01T00:02:09.556Z,13.95
2023-05-01T00:04:36.267Z,11.55
2023-05-01T00:07:02.978Z,12.50
2023-05-01T00:09:29.707Z,11.52
2023-05-01T00:11:56.364Z,9.57
2023-05-01T00:14:23.020Z,11.90
2023-05-01T00:16:49.743Z,10.63
2023-05-01T00:19:19.110Z,11.35
2023-05-01T00:21:51.641Z,12.27
2023-05-01T00:24:18.273Z,12.20
2023-05-01T00:26:45.214Z,10.63
2023-05-01T00:29:11.998Z,10.73
2023-05-01T00:31:38.917Z,10.55
2023-05-01T00:34:06.157Z,13.30
2023-05-01T00:36:33.028Z,9.90
2023-05-01T00:38:59.633Z,11.85
2023-05-01T00:41:26.328Z,11.27
2023-05-01T00:43:52.999Z,9.98
2023-05-01T00:46:19.733Z,11.93
2023-05-01T00:48:46.463Z,12.88
2023-05-01T00:51:13.917Z,10.98
2023-05-01T00:53:43.864Z,12.52
2023-05-01T00:56:11.678Z,12.88
2023-05-01T00:58:39.324Z,10.93
2023-05-01T01:01:06.018Z,10.60
2023-05-01T01:03:32.656Z,12.85
2023-05-01T01:06:14.175Z,11.02
2023-05-01T01:08:46.175Z,12.23
2023-05-01T01:11:15.542Z,14.27
2023-05-01T01:14:08.058Z,14.68
2023-05-01T01:16:48.772Z,13.90
2023-05-01T01:19:58.490Z,13.18
2023-05-01T01:22:27.934Z,11.80
2023-05-01T01:28:06.644Z,13.73
2023-05-01T01:30:56.806Z,12.48
2023-05-01T01:33:49.564Z,14.02
2023-05-01T01:36:21.408Z,13.57
2023-05-01T01:39:01.492Z,15.25
2023-05-01T01:41:34.640Z,11.43
2023-05-01T01:44:21.242Z,14.75
2023-05-01T01:46:50.534Z,18.70
2023-05-01T01:49:21.992Z,13.48
2023-05-01T01:51:50.410Z,13.98
2023-05-01T01:54:22.293Z,10.55
2023-05-01T01:56:51.075Z,12.90
2023-05-01T01:59:19.771Z,11.15
2023-05-01T02:01:47.783Z,12.90
2023-05-01T02:04:16.364Z,13.65
2023-05-01T02:06:44.866Z,13.13
2023-05-01T02:09:12.682Z,10.27
2023-05-01T02:11:40.319Z,13.02
2023-05-01T02:14:09.293Z,12.45
2023-05-01T02:16:37.382Z,14.32
2023-05-01T02:19:05.248Z,14.25
2023-05-01T02:21:34.914Z,14.52
2023-05-01T02:24:02.486Z,19.15
2023-05-01T02:26:29.870Z,16.98
2023-05-01T02:28:56.813Z,11.57
2023-05-01T02:31:23.551Z,15.00
2023-05-01T02:33:50.305Z,15.02
2023-05-01T02:36:16.990Z,13.13
2023-05-01T02:38:44.048Z,14.60
2023-05-01T02:41:11.971Z,17.63
2023-05-01T02:43:41.522Z,15.07
2023-05-01T02:46:10.605Z,12.43
2023-05-01T02:48:38.761Z,12.05
2023-05-01T02:51:05.993Z,12.48
2023-05-01T02:53:33.658Z,14.63
2023-05-01T02:56:00.714Z,14.20
2023-05-01T02:58:32.408Z,15.85
2023-05-01T03:00:59.191Z,15.30
2023-05-01T03:03:26.355Z,15.18
2023-05-01T03:05:52.981Z,13.23
2023-05-01T03:08:19.744Z,14.02
2023-05-01T03:10:46.399Z,14.10
2023-05-01T03:13:13.047Z,11.80
2023-05-01T03:15:39.851Z,12.43
2023-05-01T03:18:07.146Z,12.88
2023-05-01T03:20:34.184Z,13.32
2023-05-01T03:23:01.188Z,12.60
2023-05-01T03:25:27.854Z,11.52
2023-05-01T03:27:55.370Z,14.52
2023-05-01T03:30:22.144Z,12.88
2023-05-01T03:32:49.004Z,13.05
2023-05-01T03:35:15.677Z,14.98
2023-05-01T03:37:42.362Z,12.02
2023-05-01T03:40:09.508Z,15.15
2023-05-01T03:42:36.136Z,12.55
2023-05-01T03:45:02.761Z,12.40
2023-05-01T03:47:29.885Z,13.38
2023-05-01T03:49:56.877Z,11.93
2023-05-01T03:52:23.811Z,13.57
2023-05-01T03:54:50.667Z,16.95
2023-05-01T03:57:17.384Z,17.23
2023-05-01T03:59:44.075Z,12.73
2023-05-01T04:02:10.760Z,13.52
2023-05-01T04:04:37.598Z,12.90
2023-05-01T04:07:05.006Z,13.20
2023-05-01T04:09:31.610Z,15.68
2023-05-01T04:11:58.431Z,10.23
2023-05-01T04:14:25.156Z,13.85
2023-05-01T04:16:52.171Z,15.65
2023-05-01T04:19:18.912Z,13.40
2023-05-01T04:21:47.275Z,12.77
2023-05-01T04:24:13.910Z,13.20
2023-05-01T04:29:14.960Z,18.13
2023-05-01T04:31:43.364Z,12.93
2023-05-01T04:34:10.194Z,15.07
2023-05-01T04:36:37.171Z,16.27
2023-05-01T04:39:04.008Z,13.80
2023-05-01T04:41:30.603Z,17.38
2023-05-01T04:43:57.234Z,12.85
2023-05-01T04:46:24.017Z,11.88
2023-05-01T04:48:50.662Z,13.43
2023-05-01T04:51:17.309Z,15.38
2023-05-01T04:53:43.986Z,13.23
2023-05-01T04:56:10.712Z,13.55
2023-05-01T04:58:37.343Z,13.93
2023-05-01T05:01:03.994Z,11.63
2023-05-01T05:03:30.676Z,11.48
2023-05-01T05:05:57.421Z,10.60
2023-05-01T05:08:24.177Z,10.73
2023-05-01T05:10:56.905Z,9.98
2023-05-01T05:13:23.555Z,13.63
2023-05-01T05:15:50.135Z,11.32
2023-05-01T05:18:16.865Z,11.73
2023-05-01T05:20:43.753Z,9.52
2023-05-01T05:23:10.496Z,10.95
2023-05-01T05:25:37.542Z,10.05
2023-05-01T05:28:04.411Z,10.85
2023-05-01T05:30:31.112Z,9.95
2023-05-01T05:32:58.073Z,10.90
2023-05-01T05:35:24.808Z,7.90
2023-05-01T05:37:51.422Z,11.25
2023-05-01T05:40:19.457Z,10.00
2023-05-01T05:42:46.057Z,10.57
2023-05-01T05:45:12.671Z,13.50
2023-05-01T05:47:39.360Z,10.13
2023-05-01T05:50:07.476Z,11.75
2023-05-01T05:52:34.108Z,13.02
2023-05-01T05:55:01.138Z,13.00
2023-05-01T05:57:27.770Z,11.43
2023-05-01T05:59:54.662Z,9.23
2023-05-01T06:02:22.282Z,13.50
2023-05-01T06:04:48.976Z,14.10
2023-05-01T06:07:15.908Z,13.43
2023-05-01T06:09:42.550Z,10.32
2023-05-01T06:12:09.382Z,10.20
2023-05-01T06:14:36.050Z,10.43
2023-05-01T06:17:02.715Z,13.98
2023-05-01T06:19:29.373Z,11.00
2023-05-01T06:21:55.949Z,10.13
2023-05-01T06:24:22.612Z,10.48
2023-05-01T06:26:49.243Z,12.48
2023-05-01T06:29:16.622Z,11.95
2023-05-01T06:31:43.406Z,14.65
2023-05-01T06:34:10.074Z,11.82
2023-05-01T06:36:36.691Z,12.82
2023-05-01T06:39:03.448Z,13.27
2023-05-01T06:41:30.087Z,12.45
2023-05-01T06:43:56.753Z,14.10
2023-05-01T06:46:23.404Z,12.60
2023-05-01T06:48:50.229Z,14.50
2023-05-01T06:51:16.989Z,13.13
2023-05-01T06:53:43.672Z,16.33
2023-05-01T06:56:10.326Z,15.10
2023-05-01T06:58:37.080Z,14.80
2023-05-01T07:01:04.201Z,14.77
2023-05-01T07:03:31.041Z,12.02
2023-05-01T07:05:57.740Z,12.45
2023-05-01T07:08:24.431Z,17.20
2023-05-01T07:10:51.597Z,14.10
2023-05-01T07:13:18.380Z,17.35
2023-05-01T07:15:45.495Z,15.07
2023-05-01T07:18:12.753Z,16.58
2023-05-01T07:20:39.593Z,15.23
2023-05-01T07:23:07.519Z,16.10
2023-05-01T07:25:34.528Z,15.85
2023-05-01T07:28:02.842Z,14.30
2023-05-01T07:30:30.509Z,18.92
2023-05-01T07:32:58.054Z,17.88
2023-05-01T07:35:24.812Z,18.17
2023-05-01T07:37:52.865Z,17.42
2023-05-01T07:40:19.604Z,15.50
2023-05-01T07:42:46.393Z,19.15
2023-05-01T07:45:13.228Z,20.55
2023-05-01T07:47:39.936Z,21.13
2023-05-01T07:50:11.691Z,18.27
2023-05-01T07:52:39.252Z,15.40
2023-05-01T07:55:06.492Z,16.48
2023-05-01T07:57:36.014Z,16.45
2023-05-01T08:00:02.800Z,18.45
2023-05-01T08:02:29.543Z,18.30
2023-05-01T08:04:56.451Z,21.23
2023-05-01T08:07:23.224Z,16.55
2023-05-01T08:09:49.898Z,17.15
2023-05-01T08:12:16.561Z,20.98
2023-05-01T08:14:43.348Z,21.17
2023-05-01T08:17:09.974Z,17.90
2023-05-01T08:19:36.593Z,16.65
2023-05-01T08:22:03.227Z,17.75
2023-05-01T08:24:29.987Z,15.15
2023-05-01T08:26:56.993Z,21.73
2023-05-01T08:29:23.687Z,21.55
2023-05-01T08:31:50.541Z,17.80
2023-05-01T08:34:17.459Z,15.50
2023-05-01T08:36:44.097Z,17.50
2023-05-01T08:39:10.730Z,16.85
2023-05-01T08:41:38.340Z,17.10
2023-05-01T08:44:05.231Z,14.82
2023-05-01T08:46:35.044Z,17.05
2023-05-01T08:49:05.435Z,18.95
2023-05-01T08:51:33.953Z,19.73
2023-05-01T08:54:02.169Z,15.23
2023-05-01T08:56:31.332Z,17.20
2023-05-01T08:59:01.216Z,14.68
2023-05-01T09:01:29.627Z,17.23
2023-05-01T09:03:58.277Z,17.60
2023-05-01T09:06:28.635Z,16.57
2023-05-01T09:08:55.503Z,14.98
2023-05-01T09:11:23.996Z,16.35
2023-05-01T09:13:51.844Z,13.50
2023-05-01T09:16:19.548Z,15.25
2023-05-01T09:18:47.173Z,18.50
2023-05-01T09:21:13.883Z,16.60
2023-05-01T09:23:41.098Z,13.35
2023-05-01T09:26:08.299Z,16.40
2023-05-01T09:28:45.378Z,15.25
2023-05-01T09:31:24.861Z,14.45
2023-05-01T09:33:54.397Z,14.35
2023-05-01T09:38:47.646Z,14.82
2023-05-01T09:41:14.688Z,12.25
2023-05-01T09:43:41.895Z,9.85
2023-05-01T09:46:10.766Z,10.38
2023-05-01T09:48:38.623Z,13.70
2023-05-01T09:51:20.082Z,13.77
2023-05-01T09:53:46.848Z,11.23
2023-05-01T09:56:14.728Z,18.35
2023-05-01T09:58:41.514Z,13.38
2023-05-01T10:01:08.770Z,10.98
2023-05-01T10:03:35.871Z,8.52
2023-05-01T10:06:04.053Z,9.90
2023-05-01T10:08:50.205Z,8.30
2023-05-01T10:11:17.208Z,11.63
2023-05-01T10:13:43.907Z,7.55
2023-05-01T10:16:31.362Z,9.43
2023-05-01T10:18:58.932Z,10.80
2023-05-01T10:21:26.166Z,7.00
2023-05-01T10:23:53.208Z,8.52
2023-05-01T10:26:20.773Z,9.35
2023-05-01T10:28:49.577Z,8.57
2023-05-01T10:31:17.133Z,8.93
2023-05-01T10:33:45.162Z,8.15
2023-05-01T10:36:17.750Z,7.80
2023-05-01T10:38:48.277Z,9.27
2023-05-01T10:41:16.583Z,7.28
2023-05-01T10:43:43.979Z,6.45
2023-05-01T10:46:10.601Z,7.63
2023-05-01T10:48:43.992Z,7.85
2023-05-01T10:51:28.017Z,6.75
2023-05-01T10:54:13.434Z,6.68
2023-05-01T10:56:42.972Z,7.50
2023-05-01T10:59:10.630Z,6.38
2023-05-01T11:01:41.645Z,5.70
2023-05-01T11:04:20.474Z,7.32
2023-05-01T11:07:11.566Z,5.40
2023-05-01T11:09:46.098Z,4.97
2023-05-01T11:12:36.612Z,4.72
2023-05-01T11:15:05.896Z,7.40
2023-05-01T11:20:37.046Z,6.22
2023-05-01T11:23:03.735Z,5.03
2023-05-01T11:25:31.888Z,5.70
2023-05-01T11:28:01.184Z,4.30
2023-05-01T11:33:04.236Z,6.55
2023-05-01T11:35:32.557Z,4.15
2023-05-01T11:37:59.241Z,6.93
2023-05-01T11:40:26.987Z,4.72
2023-05-01T11:43:04.732Z,3.30
2023-05-01T11:45:32.717Z,3.10
2023-05-01T11:48:03.003Z,4.53
2023-05-01T11:50:35.909Z,2.38
2023-05-01T11:53:03.682Z,3.85
2023-05-01T11:55:34.657Z,4.35
2023-05-01T11:58:02.715Z,4.50
2023-05-01T12:00:36.806Z,5.32
2023-05-01T12:03:12.008Z,3.90
2023-05-01T12:05:42.449Z,3.70
2023-05-01T12:08:20.800Z,3.50
2023-05-01T12:10:49.244Z,3.97
2023-05-01T12:13:16.867Z,5.90
2023-05-01T12:15:46.538Z,5.20
2023-05-01T12:18:15.572Z,5.28
2023-05-01T12:20:44.933Z,4.57
2023-05-01T12:23:13.317Z,3.97
2023-05-01T12:25:41.159Z,2.97
2023-05-01T12:28:10.645Z,5.55
2023-05-01T12:30:38.069Z,2.65
2023-05-01T12:33:10.227Z,2.20
2023-05-01T12:35:37.593Z,3.70
2023-05-01T12:38:15.585Z,3.50
2023-05-01T12:40:52.480Z,3.67
2023-05-01T12:43:29.643Z,4.28
2023-05-01T12:45:56.961Z,4.95
2023-05-01T12:48:24.947Z,3.95
2023-05-01T12:50:55.041Z,5.10
2023-05-01T12:53:26.494Z,4.20
2023-05-01T12:55:58.392Z,3.38
2023-05-01T12:58:35.787Z,3.95
2023-05-01T13:01:02.564Z,4.72
2023-05-01T13:03:30.239Z,3.33
2023-05-01T13:05:59.733Z,2.95
2023-05-01T13:08:34.408Z,2.40
2023-05-01T13:11:09.063Z,6.05
2023-05-01T13:13:37.551Z,6.50
2023-05-01T13:16:09.882Z,4.80
2023-05-01T13:18:44.717Z,5.45
2023-05-01T13:21:14.771Z,9.57
2023-05-01T13:23:42.696Z,4.80
2023-05-01T13:26:11.444Z,5.32
2023-05-01T13:28:45.590Z,4.68
2023-05-01T13:31:14.179Z,6.03
2023-05-01T13:33:43.545Z,5.47
2023-05-01T13:38:55.821Z,4.25
2023-05-01T13:41:28.144Z,4.43
2023-05-01T13:43:57.130Z,4.60
2023-05-01T13:46:26.750Z,4.38
2023-05-01T13:48:53.631Z,4.40
2023-05-01T13:51:22.630Z,4.13
2023-05-01T13:53:49.487Z,4.32
2023-05-01T13:56:16.343Z,4.35
2023-05-01T13:58:43.170Z,4.93
2023-05-01T14:01:15.883Z,3.58
2023-05-01T14:03:43.363Z,3.60
2023-05-01T14:06:18.484Z,4.30
2023-05-01T14:08:47.004Z,5.00
2023-05-01T14:11:14.996Z,4.17
2023-05-01T14:13:46.317Z,5.05
2023-05-01T14:16:33.324Z,5.40
2023-05-01T14:19:00.021Z,4.65
2023-05-01T14:21:28.328Z,6.22
2023-05-01T14:23:56.717Z,4.30
2023-05-01T14:26:24.669Z,5.80
2023-05-01T14:28:51.623Z,4.18
2023-05-01T14:31:27.557Z,4.53
2023-05-01T14:33:59.550Z,4.60
2023-05-01T14:36:28.554Z,4.60
2023-05-01T14:39:00.126Z,3.60
2023-05-01T14:41:27.282Z,4.57
2023-05-01T14:43:53.949Z,5.05
2023-05-01T14:46:31.306Z,6.68
2023-05-01T14:49:01.031Z,6.45
2023-05-01T14:51:28.906Z,5.60
2023-05-01T14:53:55.582Z,4.80
2023-05-01T14:56:23.190Z,3.22
2023-05-01T14:58:50.096Z,2.80
2023-05-01T15:01:18.213Z,4.00
2023-05-01T15:03:45.621Z,3.03
2023-05-01T15:06:12.487Z,3.78
2023-05-01T15:08:39.214Z,2.75
2023-05-01T15:11:06.060Z,3.05
2023-05-01T15:13:32.741Z,3.03
2023-05-01T15:15:59.483Z,3.95
2023-05-01T15:18:26.483Z,4.63
2023-05-01T15:20:53.309Z,2.50
2023-05-01T15:23:20.285Z,4.25
2023-05-01T15:25:47.947Z,4.50
2023-05-01T15:28:14.786Z,3.22
2023-05-01T15:30:46.039Z,2.10
2023-05-01T15:33:14.468Z,3.05
2023-05-01T15:35:43.135Z,3.25
2023-05-01T15:38:09.735Z,1.70
2023-05-01T15:40:36.406Z,2.30
2023-05-01T15:43:05.480Z,2.63
2023-05-01T15:45:32.939Z,2.55
2023-05-01T15:47:59.682Z,2.05
2023-05-01T15:50:27.014Z,3.08
2023-05-01T15:52:54.888Z,12.40
2023-05-01T15:55:22.051Z,4.88
2023-05-01T15:57:48.890Z,3.38
2023-05-01T16:00:16.825Z,4.07
2023-05-01T16:02:45.283Z,4.15
2023-05-01T16:05:14.229Z,2.40
2023-05-01T16:07:41.090Z,2.35
2023-05-01T16:10:08.915Z,1.98
2023-05-01T16:12:35.738Z,1.83
2023-05-01T16:15:04.144Z,3.53
2023-05-01T16:17:46.654Z,2.45
2023-05-01T16:20:14.885Z,2.92
2023-05-01T16:22:43.191Z,5.38
2023-05-01T16:25:10.649Z,4.22
2023-05-01T16:27:44.157Z,6.07
2023-05-01T16:30:14.554Z,7.03
2023-05-01T16:32:41.825Z,4.53
2023-05-01T16:35:15.293Z,3.40
2023-05-01T16:37:42.520Z,2.65
2023-05-01T16:40:10.254Z,2.92
2023-05-01T16:42:38.489Z,2.65
2023-05-01T16:45:08.558Z,3.35
2023-05-01T16:47:35.990Z,3.25
2023-05-01T16:50:03.532Z,4.72
2023-05-01T16:52:30.476Z,5.70
2023-05-01T16:54:57.367Z,3.80
2023-05-01T16:57:24.050Z,3.80
2023-05-01T16:59:51.440Z,3.92
2023-05-01T17:02:18.250Z,3.70
2023-05-01T17:04:45.422Z,5.03
2023-05-01T17:07:12.327Z,5.43
2023-05-01T17:09:38.952Z,4.72
2023-05-01T17:12:06.368Z,4.35
2023-05-01T17:14:33.137Z,3.25
2023-05-01T17:16:59.942Z,2.70
2023-05-01T17:19:26.636Z,3.63
2023-05-01T17:21:53.355Z,2.70
2023-05-01T17:24:20.042Z,3.22
2023-05-01T17:26:46.835Z,4.18
2023-05-01T17:29:13.406Z,4.63
2023-05-01T17:31:40.084Z,4.88
2023-05-01T17:34:06.797Z,3.17
2023-05-01T17:36:33.489Z,3.03
2023-05-01T17:39:01.435Z,3.88
2023-05-01T17:41:28.188Z,3.33
2023-05-01T17:43:55.320Z,3.85
2023-05-01T17:46:22.040Z,3.65
2023-05-01T17:48:48.914Z,4.07
2023-05-01T17:51:15.677Z,3.30
2023-05-01T17:53:42.412Z,3.97
2023-05-01T17:56:09.120Z,5.13
2023-05-01T17:58:35.889Z,3.78
2023-05-01T18:01:04.725Z,5.57
2023-05-01T18:03:32.950Z,3.85
2023-05-01T18:06:04.377Z,6.82
2023-05-01T18:08:31.105Z,4.03
2023-05-01T18:10:57.735Z,4.53
2023-05-01T18:13:28.245Z,3.45
2023-05-01T18:15:56.089Z,5.00
2023-05-01T18:18:23.320Z,3.28
2023-05-01T18:20:50.050Z,3.83
2023-05-01T18:23:18.974Z,5.15
2023-05-01T18:25:46.439Z,5.13
2023-05-01T18:28:16.452Z,3.67
2023-05-01T18:30:43.360Z,3.28
2023-05-01T18:33:10.265Z,4.45
2023-05-01T18:35:41.872Z,5.00
2023-05-01T18:38:09.335Z,4.32
2023-05-01T18:40:36.058Z,4.85
2023-05-01T18:43:02.811Z,4.07
2023-05-01T18:45:29.481Z,5.07
2023-05-01T18:47:56.102Z,4.78
2023-05-01T18:50:23.160Z,3.83
2023-05-01T18:52:50.006Z,4.65
2023-05-01T18:55:17.501Z,6.00
2023-05-01T18:57:44.567Z,3.70
2023-05-01T19:00:14.619Z,3.65
2023-05-01T19:02:41.791Z,3.78
2023-05-01T19:05:09.138Z,5.38
2023-05-01T19:07:35.921Z,4.07
2023-05-01T19:10:03.696Z,4.38
2023-05-01T19:12:30.388Z,6.20
2023-05-01T19:14:57.056Z,5.70
2023-05-01T19:17:23.855Z,5.05
2023-05-01T19:19:50.722Z,3.85
2023-05-01T19:22:17.641Z,4.50
2023-05-01T19:24:44.252Z,4.20
2023-05-01T19:27:11.759Z,5.10
2023-05-01T19:29:39.776Z,3.95
2023-05-01T19:32:07.209Z,4.70
2023-05-01T19:34:33.923Z,4.85
2023-05-01T19:37:02.078Z,5.22
2023-05-01T19:39:29.617Z,3.95
2023-05-01T19:41:56.357Z,3.38
2023-05-01T19:44:23.026Z,4.80
2023-05-01T19:46:49.714Z,3.83
2023-05-01T19:49:16.581Z,4.80
2023-05-01T19:51:43.283Z,6.82
2023-05-01T19:54:09.941Z,6.80
2023-05-01T19:56:38.497Z,5.60
2023-05-01T19:59:05.268Z,6.77
2023-05-01T20:01:32.113Z,7.43
2023-05-01T20:03:58.827Z,6.90
2023-05-01T20:06:25.548Z,4.80
2023-05-01T20:08:52.289Z,4.25
2023-05-01T20:11:18.944Z,3.67
2023-05-01T20:13:46.067Z,5.15
2023-05-01T20:16:12.709Z,4.50
2023-05-01T20:18:39.409Z,4.97
2023-05-01T20:21:07.446Z,3.88
2023-05-01T20:23:34.578Z,4.05
2023-05-01T20:26:01.420Z,6.05
2023-05-01T20:28:28.600Z,4.50
2023-05-01T20:30:56.118Z,5.28
2023-05-01T20:33:22.904Z,4.43
2023-05-01T20:35:49.626Z,5.88
2023-05-01T20:38:16.278Z,4.50
2023-05-01T20:40:43.152Z,5.78
2023-05-01T20:43:09.816Z,6.35
2023-05-01T20:45:37.057Z,4.35
2023-05-01T20:48:04.026Z,5.63
2023-05-01T20:50:30.716Z,4.75
2023-05-01T20:52:57.450Z,4.70
2023-05-01T20:55:24.599Z,4.78
2023-05-01T20:57:51.248Z,6.82
2023-05-01T21:00:17.882Z,6.13
2023-05-01T21:02:44.988Z,6.50
2023-05-01T21:05:12.170Z,5.18
2023-05-01T21:07:39.839Z,5.20
2023-05-01T21:10:10.466Z,5.43
2023-05-01T21:12:37.403Z,6.35
2023-05-01T21:15:04.897Z,6.60
2023-05-01T21:17:34.609Z,4.60
2023-05-01T21:20:01.701Z,5.13
2023-05-01T21:22:28.714Z,7.18
2023-05-01T21:25:00.093Z,5.88
2023-05-01T21:27:27.464Z,8.38
2023-05-01T21:30:01.848Z,6.43
2023-05-01T21:32:32.556Z,5.80
2023-05-01T21:35:03.706Z,5.22
2023-05-01T21:37:30.520Z,6.03
2023-05-01T21:40:01.256Z,6.03
2023-05-01T21:42:35.342Z,6.63
2023-05-01T21:45:09.926Z,5.43
2023-05-01T21:47:42.309Z,6.80
2023-05-01T21:50:13.111Z,7.82
2023-05-01T21:52:40.682Z,6.50
2023-05-01T21:55:12.015Z,5.90
2023-05-01T21:57:39.938Z,7.10
2023-05-01T22:00:10.416Z,7.32
2023-05-01T22:02:44.912Z,7.10
2023-05-01T22:05:14.074Z,7.15
2023-05-01T22:07:42.390Z,6.82
2023-05-01T22:10:11.676Z,9.10
2023-05-01T22:12:39.735Z,6.47
2023-05-01T22:15:08.339Z,5.40
2023-05-01T22:17:35.199Z,7.07
2023-05-01T22:20:02.182Z,10.55
2023-05-01T22:22:29.003Z,8.30
2023-05-01T22:24:56.133Z,6.85
2023-05-01T22:27:22.800Z,8.25
2023-05-01T22:29:49.539Z,9.77
2023-05-01T22:32:16.332Z,9.63
2023-05-01T22:34:43.089Z,7.57
2023-05-01T22:37:09.941Z,8.85
2023-05-01T22:39:36.793Z,10.43
2023-05-01T22:42:04.078Z,9.30
2023-05-01T22:44:31.079Z,9.98
2023-05-01T22:46:59.512Z,7.32
2023-05-01T22:49:28.588Z,7.18
2023-05-01T22:51:56.117Z,7.10
2023-05-01T22:54:23.105Z,7.75
2023-05-01T22:56:50.324Z,7.65
2023-05-01T22:59:17.783Z,11.85
2023-05-01T23:01:45.475Z,8.80
2023-05-01T23:04:14.260Z,6.88
2023-05-01T23:06:41.284Z,7.35
2023-05-01T23:09:08.476Z,9.68
2023-05-01T23:11:35.448Z,7.93
2023-05-01T23:14:02.205Z,7.50
2023-05-01T23:16:36.608Z,6.93
2023-05-01T23:19:03.759Z,7.18
2023-05-01T23:21:31.177Z,6.63
2023-05-01T23:23:57.886Z,7.32
2023-05-01T23:26:33.015Z,8.13
2023-05-01T23:29:00.273Z,7.43
2023-05-01T23:31:27.742Z,6.80
2023-05-01T23:33:55.417Z,5.63
2023-05-01T23:36:22.426Z,6.40
2023-05-01T23:38:49.226Z,6.10
2023-05-01T23:41:16.265Z,7.07
2023-05-01T23:43:48.002Z,5.40
2023-05-01T23:46:14.846Z,7.57
2023-05-01T23:48:42.050Z,7.47
2023-05-01T23:51:09.024Z,6.65
2023-05-01T23:53:35.778Z,5.93
2023-05-01T23:56:02.429Z,8.95
2023-05-01T23:58:29.119Z,5.65
